createdAt,value
2022-11-18T15:28:17.274Z,96971.00
2022-11-18T15:33:20.477Z,96975.00
2022-11-18T15:38:23.304Z,96985.00
2022-11-18T15:43:26.150Z,96998.00
2022-11-18T15:48:28.959Z,97013.00
2022-11-18T15:53:31.763Z,97005.00
2022-11-18T15:58:36.166Z,97012.00
2022-11-18T16:03:39.452Z,97014.00
2022-11-18T16:08:42.499Z,97025.00
2022-11-18T16:13:45.938Z,97018.00
2022-11-18T16:18:48.809Z,97042.00
2022-11-18T16:23:54.507Z,97042.00
2022-11-18T16:28:57.502Z,97052.00
2022-11-18T16:34:05.837Z,97042.00
2022-11-18T16:39:14.321Z,97054.00
2022-11-18T16:44:17.687Z,97061.00
2022-11-18T16:49:23.000Z,97058.00
2022-11-18T16:54:27.707Z,97072.00
2022-11-18T16:59:31.579Z,97083.00
2022-11-18T17:04:36.376Z,97088.00
2022-11-18T17:09:39.492Z,97098.00
2022-11-18T17:14:42.256Z,97114.00
2022-11-18T17:19:45.038Z,97101.00
2022-11-18T17:24:47.792Z,97116.00
2022-11-18T17:29:51.046Z,97116.00
2022-11-18T17:34:53.771Z,97122.00
2022-11-18T17:39:56.608Z,97136.00
2022-11-18T17:44:59.480Z,97149.00
2022-11-18T17:50:02.329Z,97147.00
2022-11-18T17:55:06.963Z,97151.00
2022-11-18T18:00:10.825Z,97144.00
2022-11-18T18:05:16.284Z,97151.00
2022-11-18T18:10:21.243Z,97147.00
2022-11-18T18:15:24.208Z,97152.00
2022-11-18T18:20:27.442Z,97174.00
2022-11-18T18:25:30.552Z,97174.00
2022-11-18T18:30:33.301Z,97178.00
2022-11-18T18:35:41.408Z,97179.00
2022-11-18T18:40:44.195Z,97183.00
2022-11-18T18:46:05.508Z,97193.00
2022-11-18T18:51:08.305Z,97184.00
2022-11-18T18:56:11.041Z,97200.00
2022-11-18T19:01:16.034Z,97201.00
2022-11-18T19:06:53.289Z,97200.00
2022-11-18T19:12:08.132Z,97202.00
2022-11-18T19:17:12.356Z,97222.00
2022-11-18T19:22:15.935Z,97226.00
2022-11-18T19:27:19.498Z,97227.00
2022-11-18T19:32:22.569Z,97227.00
2022-11-18T19:37:25.371Z,97240.00
2022-11-18T19:42:28.964Z,97232.00
2022-11-18T19:47:32.117Z,97249.00
2022-11-18T19:52:34.961Z,97247.00
2022-11-18T19:57:37.730Z,97237.00
2022-11-18T20:02:40.514Z,97246.00
2022-11-18T20:07:43.416Z,97252.00
2022-11-18T20:12:46.188Z,97256.00
2022-11-18T20:17:48.959Z,97273.00
2022-11-18T20:22:54.233Z,97266.00
2022-11-18T20:27:57.309Z,97262.00
2022-11-18T20:33:00.106Z,97269.00
2022-11-18T20:38:02.972Z,97272.00
2022-11-18T20:43:14.499Z,97279.00
2022-11-18T20:48:17.296Z,97291.00
2022-11-18T20:53:22.225Z,97284.00
2022-11-18T20:58:24.985Z,97285.00
2022-11-18T21:03:27.700Z,97301.00
2022-11-18T21:08:30.405Z,97306.00
2022-11-18T21:13:52.507Z,97310.00
2022-11-18T21:18:55.518Z,97314.00
2022-11-18T21:24:00.134Z,97322.00
2022-11-18T21:29:06.173Z,97315.00
2022-11-18T21:34:10.238Z,97331.00
2022-11-18T21:39:13.658Z,97337.00
2022-11-18T21:44:16.501Z,97353.00
2022-11-18T21:49:19.594Z,97353.00
2022-11-18T21:54:22.444Z,97369.00
2022-11-18T21:59:25.248Z,97379.00
2022-11-18T22:04:46.457Z,97372.00
2022-11-18T22:09:49.487Z,97376.00
2022-11-18T22:14:52.213Z,97362.00
2022-11-18T22:19:54.911Z,97354.00
2022-11-18T22:24:57.613Z,97366.00
2022-11-18T22:30:00.330Z,97372.00
2022-11-18T22:35:03.252Z,97362.00
2022-11-18T22:40:06.601Z,97373.00
2022-11-18T22:45:09.791Z,97383.00
2022-11-18T22:50:12.558Z,97400.00
2022-11-18T22:55:15.518Z,97398.00
2022-11-18T23:00:18.896Z,97379.00
2022-11-18T23:05:41.410Z,97390.00
2022-11-18T23:11:22.907Z,97415.00
2022-11-18T23:16:55.752Z,97406.00
2022-11-18T23:22:11.395Z,97407.00
2022-11-18T23:27:42.400Z,97410.00
2022-11-18T23:32:51.442Z,97418.00
2022-11-18T23:38:04.554Z,97419.00
2022-11-18T23:43:17.746Z,97418.00
2022-11-18T23:48:27.726Z,97430.00
2022-11-18T23:53:49.649Z,97446.00
2022-11-18T23:59:01.167Z,97460.00
